Time;durP1;ratioP1;P1;durP2;ratioP2;P2;SDS_P1;SDS_P2;PMS_P1;PMS_P2;Temp;Humidity;BMP_temperature;BMP_pressure;BME280_temperature;BME280_humidity;BME280_pressure;Samples;Min_cycle;Max_cycle;Signal;HPM_P1;HPM_P2
2023/04/21 00:01:12;;;;;;;1999.90;999.90;;;9.30;99.90;;;;;;4891473;29;20050;-75
2023/04/21 00:03:40;;;;;;;1999.90;999.90;;;9.20;99.90;;;;;;4899506;29;20052;-75
2023/04/21 00:06:06;;;;;;;;;;;9.20;99.90;;;;;;4903161;29;20058;-75
2023/04/21 00:08:33;;;;;;;1999.90;999.90;;;9.20;99.90;;;;;;4898487;29;19997;-75
2023/04/21 00:10:58;;;;;;;1999.90;999.90;;;9.50;99.90;;;;;;4892274;29;20456;-75
2023/04/21 00:13:24;;;;;;;1999.90;999.90;;;9.50;99.90;;;;;;4887274;29;20060;-75
2023/04/21 00:15:50;;;;;;;1999.90;999.90;;;9.30;99.90;;;;;;4880913;29;20057;-75
2023/04/21 00:18:16;;;;;;;1999.90;999.90;;;9.30;99.90;;;;;;4896228;29;20096;-76
2023/04/21 00:20:43;;;;;;;1999.90;999.90;;;9.30;99.90;;;;;;4911521;29;20052;-76
2023/04/21 00:23:10;;;;;;;1999.90;999.90;;;9.30;99.90;;;;;;4897547;29;20457;-76
2023/04/21 00:25:36;;;;;;;1999.90;999.90;;;9.40;99.90;;;;;;4892951;29;20539;-76
2023/04/21 00:28:01;;;;;;;1999.90;999.90;;;9.30;99.90;;;;;;4886749;29;20085;-76
2023/04/21 00:30:28;;;;;;;1999.90;999.90;;;9.50;99.90;;;;;;4889465;29;20067;-75
2023/04/21 00:32:53;;;;;;;1999.90;999.90;;;9.20;99.90;;;;;;4886469;29;20049;-76
2023/04/21 00:35:19;;;;;;;1999.90;999.90;;;9.20;99.90;;;;;;4898820;29;20470;-75
2023/04/21 00:37:45;;;;;;;1999.90;999.90;;;9.10;99.90;;;;;;4897836;29;20115;-75
2023/04/21 00:40:11;;;;;;;1999.90;999.90;;;9.00;99.90;;;;;;4898342;29;20509;-76
2023/04/21 00:42:36;;;;;;;1999.90;999.90;;;9.00;99.90;;;;;;4887148;29;20516;-75
2023/04/21 00:45:03;;;;;;;1999.90;999.90;;;9.00;99.90;;;;;;4879389;29;20121;-75
2023/04/21 00:47:29;;;;;;;1999.90;999.90;;;8.90;99.90;;;;;;4896236;29;20048;-75
2023/04/21 00:49:57;;;;;;;1999.90;999.90;;;8.80;99.90;;;;;;4898190;29;20045;-75
2023/04/21 00:52:23;;;;;;;1999.90;999.90;;;8.80;99.90;;;;;;4896304;29;20040;-75
2023/04/21 00:54:49;;;;;;;1999.90;999.90;;;8.70;99.90;;;;;;4897840;29;20148;-75
2023/04/21 00:57:15;;;;;;;1999.90;999.90;;;9.40;99.90;;;;;;4898883;29;20063;-76
2023/04/21 00:59:42;;;;;;;1999.90;999.90;;;8.70;99.90;;;;;;4898266;29;20060;-76
2023/04/21 01:02:08;;;;;;;1999.90;999.90;;;8.70;99.90;;;;;;4881394;29;20108;-75
2023/04/21 01:04:38;;;;;;;1999.90;999.90;;;8.80;99.90;;;;;;4886680;29;20041;-75
2023/04/21 01:07:05;;;;;;;1999.90;999.90;;;8.70;99.90;;;;;;4885308;29;20064;-75
2023/04/21 01:09:32;;;;;;;1918.70;406.25;;;8.70;99.90;;;;;;4884303;29;20048;-75
2023/04/21 01:12:08;;;;;;;1999.90;999.90;;;8.90;99.90;;;;;;4889802;29;20049;-79
2023/04/21 01:14:35;;;;;;;1999.90;999.90;;;8.60;99.90;;;;;;4880286;29;20044;-75
2023/04/21 01:17:04;;;;;;;1274.57;384.90;;;8.70;99.90;;;;;;4881813;29;20470;-76
2023/04/21 01:19:33;;;;;;;1999.90;999.90;;;8.50;99.90;;;;;;4890203;29;20128;-75
2023/04/21 01:21:59;;;;;;;1999.90;999.90;;;9.70;99.90;;;;;;4885041;29;20116;-76
2023/04/21 01:24:46;;;;;;;1783.75;796.92;;;8.50;99.90;;;;;;4902577;29;20049;-76
2023/04/21 01:27:17;;;;;;;1999.90;999.90;;;8.50;99.90;;;;;;4889921;29;20052;-75
2023/04/21 01:29:47;;;;;;;1723.82;793.42;;;8.40;99.90;;;;;;4886076;29;20091;-76
2023/04/21 01:32:16;;;;;;;1999.90;999.90;;;8.50;99.90;;;;;;4889478;29;20063;-75
2023/04/21 01:34:43;;;;;;;1999.90;999.90;;;8.50;99.90;;;;;;4888466;29;20482;-75
2023/04/21 01:37:17;;;;;;;1999.90;999.90;;;8.50;99.90;;;;;;4887646;29;20120;-76
2023/04/21 01:39:53;;;;;;;1999.90;999.90;;;8.50;99.90;;;;;;4890220;29;20048;-76
2023/04/21 01:42:21;;;;;;;1999.90;999.90;;;8.50;99.90;;;;;;4889102;29;20060;-76
2023/04/21 01:44:48;;;;;;;;;;;8.60;99.90;;;;;;4902965;29;20059;-79
2023/04/21 01:47:14;;;;;;;1999.90;999.90;;;8.50;99.90;;;;;;4888152;29;20360;-76
2023/04/21 01:49:40;;;;;;;1999.90;999.90;;;8.50;99.90;;;;;;4888347;29;20070;-74
2023/04/21 01:52:06;;;;;;;1999.90;999.90;;;8.50;99.90;;;;;;4888679;29;20548;-74
2023/04/21 01:54:32;;;;;;;1999.90;999.90;;;8.90;99.90;;;;;;4868335;29;20127;-74
2023/04/21 01:56:57;;;;;;;1999.90;999.90;;;8.40;99.90;;;;;;4889129;29;20040;-74
2023/04/21 01:59:23;;;;;;;1999.90;999.90;;;8.70;99.90;;;;;;4889097;29;20607;-73
2023/04/21 02:01:49;;;;;;;1999.90;999.90;;;;;;;;;;4888894;29;20045;-76
2023/04/21 02:04:15;;;;;;;1999.90;999.90;;;8.30;99.90;;;;;;4899781;29;20387;-74
2023/04/21 02:06:40;;;;;;;1999.90;999.90;;;8.30;99.90;;;;;;4891375;29;20080;-77
2023/04/21 02:09:06;;;;;;;1999.90;999.90;;;8.30;99.90;;;;;;4884929;29;20167;-74
2023/04/21 02:11:32;;;;;;;1999.90;999.90;;;8.30;99.90;;;;;;4891427;29;20051;-74
2023/04/21 02:13:57;;;;;;;1999.90;999.90;;;8.20;99.90;;;;;;4890215;29;20127;-74
2023/04/21 02:16:26;;;;;;;1999.90;999.90;;;8.30;99.90;;;;;;4885619;29;20049;-75
2023/04/21 02:18:53;;;;;;;1999.90;999.90;;;8.60;99.90;;;;;;4887675;29;20044;-74
2023/04/21 02:21:23;;;;;;;1999.90;999.90;;;8.30;99.90;;;;;;4892134;29;20052;-74
2023/04/21 02:23:49;;;;;;;1999.90;999.90;;;8.20;99.90;;;;;;4884950;29;20049;-76
2023/04/21 02:26:16;;;;;;;1999.90;999.90;;;8.90;99.90;;;;;;4883282;29;20061;-74
2023/04/21 02:28:41;;;;;;;1999.90;999.90;;;8.20;99.90;;;;;;4886083;29;20056;-73
2023/04/21 02:31:07;;;;;;;1999.90;999.90;;;8.20;99.90;;;;;;4885883;29;20139;-74
2023/04/21 02:33:33;;;;;;;1999.90;999.90;;;8.20;99.90;;;;;;4883073;29;20562;-75
2023/04/21 02:35:58;;;;;;;1054.70;503.33;;;8.60;99.90;;;;;;4885758;29;20059;-74
2023/04/21 02:38:25;;;;;;;1730.60;766.65;;;9.00;99.90;;;;;;4884324;29;20076;-74
2023/04/21 02:40:51;;;;;;;1999.90;999.90;;;8.20;99.90;;;;;;4888778;29;20084;-74
2023/04/21 02:43:17;;;;;;;1999.90;999.90;;;8.20;99.90;;;;;;4887686;29;20045;-74
2023/04/21 02:45:42;;;;;;;1999.90;999.90;;;8.10;99.90;;;;;;4885799;29;20674;-76
2023/04/21 02:48:08;;;;;;;1999.90;999.90;;;8.10;99.90;;;;;;4885690;29;20041;-74
2023/04/21 02:50:34;;;;;;;1999.90;999.90;;;8.30;99.90;;;;;;4897176;29;20080;-74
2023/04/21 02:53:00;;;;;;;1999.90;999.90;;;8.10;99.90;;;;;;4881739;29;20049;-74
2023/04/21 02:55:26;;;;;;;1999.90;999.90;;;8.10;99.90;;;;;;4878373;29;20056;-74
2023/04/21 02:57:52;;;;;;;1999.90;999.90;;;8.10;99.90;;;;;;4894711;29;20059;-74
2023/04/21 03:00:19;;;;;;;1999.90;999.90;;;8.00;99.90;;;;;;4890630;29;20063;-75
2023/04/21 03:02:45;;;;;;;1999.90;999.90;;;8.00;99.90;;;;;;4889901;29;20136;-74
2023/04/21 03:05:11;;;;;;;1999.90;999.90;;;8.10;99.90;;;;;;4878292;29;20490;-74
2023/04/21 03:07:37;;;;;;;1759.25;798.38;;;8.00;99.90;;;;;;4890586;29;20052;-74
2023/04/21 03:10:03;;;;;;;1843.80;797.58;;;8.10;99.90;;;;;;4890652;29;20113;-75
2023/04/21 03:12:29;;;;;;;1999.90;999.90;;;8.00;99.90;;;;;;4877958;29;20045;-74
2023/04/21 03:14:54;;;;;;;1999.90;999.90;;;8.60;99.90;;;;;;4878626;29;20057;-74
2023/04/21 03:17:20;;;;;;;1737.65;352.63;;;8.00;99.90;;;;;;4883844;29;20055;-74
2023/04/21 03:19:46;;;;;;;1999.90;609.55;;;8.00;99.90;;;;;;4888793;29;20053;-74
2023/04/21 03:22:11;;;;;;;1999.90;999.90;;;8.40;99.90;;;;;;4877168;29;20398;-75
2023/04/21 03:24:37;;;;;;;1999.90;999.90;;;8.00;99.90;;;;;;4878278;29;20130;-74
2023/04/21 03:27:05;;;;;;;1307.85;273.27;;;9.70;99.90;;;;;;4885502;29;20550;-74
2023/04/21 03:29:30;;;;;;;1124.05;507.65;;;8.20;99.90;;;;;;4893065;29;20052;-75
2023/04/21 03:31:56;;;;;;;1999.90;999.90;;;8.20;99.90;;;;;;4877222;29;20126;-75
2023/04/21 03:34:21;;;;;;;1999.90;999.90;;;8.20;99.90;;;;;;4885159;29;20056;-76
2023/04/21 03:36:47;;;;;;;1791.40;817.45;;;8.20;99.90;;;;;;4887231;29;20056;-74
2023/04/21 03:39:13;;;;;;;1999.90;999.90;;;8.50;99.90;;;;;;4888627;29;20052;-74
2023/04/21 03:41:39;;;;;;;1999.90;999.90;;;8.20;99.90;;;;;;4885503;29;20049;-74
2023/04/21 03:44:04;;;;;;;1999.90;999.90;;;8.20;99.90;;;;;;4889560;29;20041;-74
2023/04/21 03:46:30;;;;;;;1999.90;999.90;;;8.20;99.90;;;;;;4882911;29;20120;-74
2023/04/21 03:48:56;;;;;;;1999.90;999.90;;;8.20;99.90;;;;;;4885565;29;20111;-74
2023/04/21 03:51:21;;;;;;;1876.10;322.90;;;8.20;99.90;;;;;;4889318;29;20048;-74
2023/04/21 03:53:47;;;;;;;1999.90;999.90;;;8.20;99.90;;;;;;4891370;29;20053;-74
2023/04/21 03:56:12;;;;;;;1661.20;761.75;;;8.60;99.90;;;;;;4881851;29;20089;-78
2023/04/21 03:58:38;;;;;;;1999.90;999.90;;;8.10;99.90;;;;;;4892299;29;20131;-75
2023/04/21 04:01:05;;;;;;;1999.90;999.90;;;8.10;99.90;;;;;;4885265;29;20053;-79
2023/04/21 04:03:31;;;;;;;1999.90;999.90;;;8.00;99.90;;;;;;4897491;29;20143;-74
2023/04/21 04:05:57;;;;;;;1999.90;999.90;;;8.00;99.90;;;;;;4884050;29;20127;-75
2023/04/21 04:08:23;;;;;;;1999.90;999.90;;;8.20;99.90;;;;;;4888604;29;20060;-76
2023/04/21 04:10:48;;;;;;;1999.90;999.90;;;7.90;99.90;;;;;;4872490;29;20064;-74
2023/04/21 04:13:14;;;;;;;1999.90;472.60;;;7.80;99.90;;;;;;4891229;29;20555;-74
2023/04/21 04:15:40;;;;;;;1999.90;999.90;;;7.80;99.90;;;;;;4891207;29;20047;-75
2023/04/21 04:18:06;;;;;;;1999.90;999.90;;;7.80;99.90;;;;;;4891474;29;20056;-74
2023/04/21 04:20:31;;;;;;;1999.90;428.98;;;7.70;99.90;;;;;;4883270;29;20044;-74
2023/04/21 04:22:57;;;;;;;1999.90;999.90;;;7.70;99.90;;;;;;4892650;29;20502;-74
2023/04/21 04:25:23;;;;;;;1844.00;810.00;;;7.70;99.90;;;;;;4896241;29;20045;-75
2023/04/21 04:27:49;;;;;;;1954.32;286.27;;;7.70;99.90;;;;;;4887057;29;20045;-75
2023/04/21 04:30:15;;;;;;;1999.90;725.13;;;7.70;1.00;;;;;;4885559;29;20139;-75
2023/04/21 04:32:41;;;;;;;1826.00;289.08;;;7.80;99.90;;;;;;4889805;29;20053;-76
2023/04/21 04:35:08;;;;;;;1999.90;999.90;;;7.80;99.90;;;;;;4888434;29;20139;-75
2023/04/21 04:37:38;;;;;;;1999.90;999.90;;;7.70;99.90;;;;;;4890260;29;20195;-75
2023/04/21 04:40:05;;;;;;;1999.90;999.90;;;8.00;99.90;;;;;;4887689;29;20060;-76
2023/04/21 04:42:35;;;;;;;1999.90;999.90;;;7.70;99.90;;;;;;4878665;29;20482;-75
2023/04/21 04:45:02;;;;;;;1999.90;999.90;;;7.70;99.90;;;;;;4887334;29;20055;-75
2023/04/21 04:47:28;;;;;;;1691.70;277.60;;;8.30;99.90;;;;;;4897776;29;20056;-75
2023/04/21 04:49:54;;;;;;;1999.90;999.90;;;8.00;99.90;;;;;;4893372;29;20083;-75
2023/04/21 04:52:20;;;;;;;1999.90;597.33;;;9.80;1.00;;;;;;4880444;29;20541;-76
2023/04/21 04:54:45;;;;;;;1999.90;999.90;;;7.70;99.90;;;;;;4893749;29;20044;-76
2023/04/21 04:57:11;;;;;;;1809.93;777.00;;;7.70;1.00;;;;;;4897006;29;20044;-80
2023/04/21 04:59:37;;;;;;;1999.90;999.90;;;7.70;1.00;;;;;;4887247;29;20045;-75
2023/04/21 05:02:02;;;;;;;1913.43;806.17;;;8.10;1.00;;;;;;4881146;29;20048;-75
2023/04/21 05:04:28;;;;;;;1917.05;814.13;;;7.80;1.00;;;;;;4888629;29;20123;-75
2023/04/21 05:06:54;;;;;;;1894.45;524.67;;;8.20;1.00;;;;;;4896096;29;20158;-75
2023/04/21 05:09:20;;;;;;;1842.53;818.80;;;7.70;1.00;;;;;;4903012;29;20049;-75
2023/04/21 05:11:45;;;;;;;1990.97;444.95;;;7.80;1.00;;;;;;4886636;29;20048;-75
2023/04/21 05:14:11;;;;;;;1999.90;999.90;;;7.80;1.00;;;;;;4898056;29;20060;-75
2023/04/21 05:16:37;;;;;;;1999.90;999.90;;;7.80;1.00;;;;;;4905833;29;20051;-75
2023/04/21 05:19:03;;;;;;;1999.90;999.90;;;7.80;99.90;;;;;;4879738;29;20363;-75
2023/04/21 05:21:30;;;;;;;1999.90;999.90;;;7.90;99.90;;;;;;4885156;29;20112;-75
2023/04/21 05:23:56;;;;;;;1999.90;999.90;;;7.90;99.90;;;;;;4892737;29;20044;-75
2023/04/21 05:26:23;;;;;;;1999.90;999.90;;;8.00;1.00;;;;;;4878351;29;20052;-75
2023/04/21 05:28:49;;;;;;;1950.88;625.60;;;7.90;1.00;;;;;;4895450;29;20176;-75
2023/04/21 05:31:15;;;;;;;1851.90;836.55;;;8.00;1.00;;;;;;4889695;29;20049;-78
2023/04/21 05:33:41;;;;;;;783.17;82.38;;;8.00;1.00;;;;;;4878490;29;20060;-75
2023/04/21 05:36:10;;;;;;;1385.78;297.52;;;8.10;1.00;;;;;;4895176;29;20079;-75
2023/04/21 05:38:36;;;;;;;1999.90;977.35;;;8.10;99.90;;;;;;4896148;29;20272;-75
2023/04/21 05:41:03;;;;;;;1589.25;377.77;;;8.20;99.90;;;;;;4897387;29;20053;-75
2023/04/21 05:43:32;;;;;;;1960.75;532.70;;;8.20;99.90;;;;;;4887744;29;20045;-74
2023/04/21 05:46:01;;;;;;;1691.40;375.17;;;8.30;99.90;;;;;;4898370;29;20052;-74
2023/04/21 05:48:27;;;;;;;1999.90;408.77;;;8.10;99.90;;;;;;4896475;29;20047;-75
2023/04/21 05:50:54;;;;;;;1999.90;999.90;;;8.40;99.90;;;;;;4897368;29;20085;-74
2023/04/21 05:53:20;;;;;;;1999.90;999.90;;;8.80;99.90;;;;;;4885575;29;20498;-75
2023/04/21 05:55:45;;;;;;;1730.93;789.15;;;8.50;99.90;;;;;;4881356;29;20062;-75
2023/04/21 05:58:11;;;;;;;1999.90;743.00;;;9.00;99.90;;;;;;4897880;29;20044;-74
2023/04/21 06:00:37;;;;;;;1982.72;504.00;;;8.60;99.90;;;;;;4894476;29;20051;-74
2023/04/21 06:03:03;;;;;;;1999.90;465.40;;;8.70;99.90;;;;;;4895418;29;20045;-75
2023/04/21 06:05:28;;;;;;;1999.90;662.78;;;8.80;99.90;;;;;;4897084;29;20402;-75
2023/04/21 06:07:54;;;;;;;1999.90;999.90;;;9.00;99.90;;;;;;4895586;29;20088;-74
2023/04/21 06:10:20;;;;;;;1999.90;999.90;;;8.90;99.90;;;;;;4896872;29;20103;-75
2023/04/21 06:12:46;;;;;;;1999.90;582.22;;;10.60;99.90;;;;;;4879903;29;20556;-75
2023/04/21 06:15:12;;;;;;;1999.90;468.65;;;9.10;99.90;;;;;;4893416;29;20049;-75
2023/04/21 06:17:37;;;;;;;1902.63;809.03;;;9.10;99.90;;;;;;4878532;29;20053;-75
2023/04/21 06:20:03;;;;;;;1999.90;999.90;;;9.20;99.90;;;;;;4882182;29;20077;-75
2023/04/21 06:22:29;;;;;;;1999.90;999.90;;;9.30;99.90;;;;;;4892997;29;20393;-75
2023/04/21 06:24:55;;;;;;;1999.90;999.90;;;9.40;99.90;;;;;;4895329;29;20052;-74
2023/04/21 06:27:21;;;;;;;1999.90;999.90;;;9.50;99.90;;;;;;4893617;29;20044;-75
2023/04/21 06:29:46;;;;;;;1999.90;999.90;;;9.60;99.90;;;;;;4895383;29;20514;-75
2023/04/21 06:32:12;;;;;;;1999.90;999.90;;;9.70;99.90;;;;;;4894275;29;20143;-75
2023/04/21 06:34:38;;;;;;;1999.90;999.90;;;9.80;99.90;;;;;;4878371;29;20121;-75
2023/04/21 06:37:04;;;;;;;1999.90;999.90;;;9.90;99.90;;;;;;4894702;29;21670;-75
2023/04/21 06:39:29;;;;;;;1999.90;999.90;;;10.00;99.90;;;;;;4879104;29;20049;-74
2023/04/21 06:41:57;;;;;;;1999.90;999.90;;;10.10;99.90;;;;;;4896698;29;20045;-74
2023/04/21 06:44:22;;;;;;;1999.90;999.90;;;10.20;99.90;;;;;;4888088;29;20421;-75
2023/04/21 06:46:48;;;;;;;1999.90;999.90;;;10.30;99.90;;;;;;4881841;29;20041;-76
2023/04/21 06:49:14;;;;;;;1999.90;999.90;;;10.30;99.90;;;;;;4895173;29;20045;-74
2023/04/21 06:51:39;;;;;;;1999.90;999.90;;;10.50;99.90;;;;;;4895904;29;20179;-75
2023/04/21 06:54:05;;;;;;;1999.90;999.90;;;10.60;99.90;;;;;;4892167;29;20047;-74
2023/04/21 06:56:32;;;;;;;1999.90;999.90;;;10.70;99.90;;;;;;4890683;29;20414;-74
2023/04/21 06:58:57;;;;;;;1999.90;999.90;;;10.80;99.90;;;;;;4890453;29;20056;-75
2023/04/21 07:01:23;;;;;;;1999.90;999.90;;;10.90;99.90;;;;;;4888801;29;20101;-75
2023/04/21 07:03:50;;;;;;;1999.90;999.90;;;11.10;99.90;;;;;;4878024;29;20049;-75
2023/04/21 07:06:15;;;;;;;1999.90;999.90;;;11.10;99.90;;;;;;4877523;29;20517;-74
2023/04/21 07:08:41;;;;;;;1999.90;999.90;;;11.20;99.90;;;;;;4879705;29;20757;-74
2023/04/21 07:11:07;;;;;;;1999.90;999.90;;;11.30;99.90;;;;;;4887064;29;20056;-74
2023/04/21 07:13:33;;;;;;;1999.90;999.90;;;11.50;99.90;;;;;;4860785;29;20096;-75
2023/04/21 07:15:58;;;;;;;1999.90;999.90;;;11.70;99.90;;;;;;4888976;29;20520;-75
2023/04/21 07:18:24;;;;;;;1999.90;999.90;;;11.90;99.90;;;;;;4893220;29;20398;-75
2023/04/21 07:20:50;;;;;;;1999.90;999.90;;;12.10;99.90;;;;;;4900630;29;20048;-75
2023/04/21 07:23:16;;;;;;;1999.90;999.90;;;12.30;99.90;;;;;;4866554;29;20517;-76
2023/04/21 07:25:41;;;;;;;1999.90;999.90;;;12.40;99.90;;;;;;4882768;29;20068;-75
2023/04/21 07:28:07;;;;;;;1999.90;999.90;;;12.50;99.90;;;;;;4886948;29;20136;-75
2023/04/21 07:30:33;;;;;;;1999.90;999.90;;;12.70;99.90;;;;;;4899423;29;20181;-75
2023/04/21 07:32:59;;;;;;;1999.90;999.90;;;12.90;99.90;;;;;;4899235;29;20041;-74
2023/04/21 07:35:25;;;;;;;1999.90;999.90;;;13.10;97.30;;;;;;4888162;29;20063;-74
2023/04/21 07:37:51;;;;;;;1999.90;999.90;;;13.10;98.40;;;;;;4880214;29;20061;-75
2023/04/21 07:40:17;;;;;;;1999.90;999.90;;;13.10;94.90;;;;;;4880702;29;20201;-76
2023/04/21 07:42:42;;;;;;;1999.90;999.90;;;13.40;98.60;;;;;;4899996;29;20127;-75
2023/04/21 07:45:09;;;;;;;1999.90;999.90;;;13.60;95.60;;;;;;4892731;29;20051;-77
2023/04/21 07:47:34;;;;;;;1999.90;999.90;;;14.40;88.30;;;;;;4885366;29;20083;-75
2023/04/21 07:50:00;;;;;;;1999.90;999.90;;;15.30;62.20;;;;;;4900389;29;20092;-75
2023/04/21 07:52:26;;;;;;;1999.90;999.90;;;15.80;36.80;;;;;;4898494;29;20478;-75
2023/04/21 07:54:52;;;;;;;1999.90;999.90;;;16.60;24.40;;;;;;4895827;29;21342;-76
2023/04/21 07:57:18;;;;;;;1999.90;999.90;;;17.40;3.90;;;;;;4896200;29;20569;-76
2023/04/21 07:59:43;;;;;;;1999.90;999.90;;;17.80;1.00;;;;;;4898488;29;20048;-76
2023/04/21 08:02:09;;;;;;;1999.90;999.90;;;18.80;1.00;;;;;;4898998;29;20135;-77
2023/04/21 08:04:35;;;;;;;1999.90;999.90;;;19.40;1.00;;;;;;4881077;29;20153;-76
2023/04/21 08:07:01;;;;;;;1999.90;999.90;;;20.00;1.00;;;;;;4865548;29;20064;-75
2023/04/21 08:09:27;;;;;;;1999.90;999.90;;;20.40;1.00;;;;;;4881472;29;20056;-76
2023/04/21 08:11:53;;;;;;;1999.90;999.90;;;20.30;1.00;;;;;;4883937;29;20045;-76
2023/04/21 08:14:19;;;;;;;1999.90;999.90;;;20.20;1.00;;;;;;4900108;29;20048;-76
2023/04/21 08:16:45;;;;;;;1999.90;999.90;;;20.60;1.00;;;;;;4897081;29;20057;-77
2023/04/21 08:19:11;;;;;;;1999.90;999.90;;;21.30;1.00;;;;;;4898664;29;20403;-75
2023/04/21 08:21:38;;;;;;;1999.90;999.90;;;20.80;1.00;;;;;;4881120;29;20059;-76
2023/04/21 08:24:04;;;;;;;1999.90;999.90;;;20.50;1.00;;;;;;4897808;29;20071;-77
2023/04/21 08:26:32;;;;;;;1999.90;999.90;;;20.50;1.00;;;;;;4894873;29;20414;-76
2023/04/21 08:28:58;;;;;;;1999.90;999.90;;;20.70;1.00;;;;;;4883453;29;20487;-76
2023/04/21 08:31:24;;;;;;;1999.90;999.90;;;21.00;1.00;;;;;;4880857;29;20049;-77
2023/04/21 08:33:50;;;;;;;1999.90;999.90;;;21.60;1.00;;;;;;4881266;29;20534;-76
2023/04/21 08:36:16;;;;;;;1999.90;999.90;;;22.00;1.00;;;;;;4898709;29;20048;-77
2023/04/21 08:38:43;;;;;;;1999.90;999.90;;;21.90;1.00;;;;;;4887334;29;20140;-76
2023/04/21 08:41:09;;;;;;;1999.90;999.90;;;22.50;1.00;;;;;;4882323;29;20521;-76
2023/04/21 08:43:35;;;;;;;1999.90;999.90;;;22.90;1.00;;;;;;4887063;29;20060;-76
2023/04/21 08:46:11;;;;;;;1999.90;999.90;;;22.50;1.00;;;;;;4880183;29;20049;-76
2023/04/21 08:48:37;;;;;;;1999.90;999.90;;;21.70;1.00;;;;;;4884809;29;20044;-76
2023/04/21 08:51:08;;;;;;;1999.90;999.90;;;21.90;1.00;;;;;;4899190;29;20053;-76
2023/04/21 08:53:35;;;;;;;1999.90;999.90;;;21.90;1.00;;;;;;4886403;29;20481;-76
2023/04/21 08:56:02;;;;;;;1999.90;999.90;;;22.60;1.00;;;;;;4879983;29;20156;-76
2023/04/21 08:58:28;;;;;;;1999.90;999.90;;;23.00;1.00;;;;;;4879393;29;20493;-76
2023/04/21 09:00:53;;;;;;;1999.90;999.90;;;23.60;1.00;;;;;;4896125;29;20052;-76
2023/04/21 09:03:23;;;;;;;1999.90;999.90;;;23.60;1.00;;;;;;4894753;29;20048;-76
2023/04/21 09:05:59;;;;;;;1999.90;999.90;;;23.80;1.00;;;;;;4879575;29;20092;-76
2023/04/21 09:08:26;;;;;;;1999.90;999.90;;;23.70;1.00;;;;;;4888364;29;20099;-76
2023/04/21 09:10:51;;;;;;;1999.90;999.90;;;24.10;1.00;;;;;;4891142;29;20048;-76
2023/04/21 09:13:18;;;;;;;1999.90;999.90;;;24.30;1.00;;;;;;4898269;29;20049;-76
2023/04/21 09:15:46;;;;;;;1999.90;999.90;;;24.50;1.00;;;;;;4893899;29;20044;-77
2023/04/21 09:18:20;;;;;;;1999.90;999.90;;;24.00;1.00;;;;;;4883942;29;20053;-76
2023/04/21 09:20:47;;;;;;;1999.90;999.90;;;23.20;1.00;;;;;;4891887;29;20064;-75
2023/04/21 09:23:12;;;;;;;1999.90;999.90;;;21.50;1.00;;;;;;4897882;29;20048;-76
2023/04/21 09:25:43;;;;;;;1999.90;999.90;;;21.00;1.00;;;;;;4885495;29;20577;-76
2023/04/21 09:28:10;;;;;;;1999.90;999.90;;;21.20;1.00;;;;;;4895993;29;20056;-76
2023/04/21 09:30:41;;;;;;;1999.90;999.90;;;21.10;1.00;;;;;;4898142;29;20045;-76
2023/04/21 09:33:07;;;;;;;1999.90;999.90;;;21.30;1.00;;;;;;4898420;29;20045;-76
2023/04/21 09:35:35;;;;;;;1999.90;999.90;;;21.40;1.00;;;;;;4897654;29;20130;-76
2023/04/21 09:38:03;;;;;;;1999.90;999.90;;;21.70;1.00;;;;;;4895882;29;20065;-76
2023/04/21 09:40:29;;;;;;;1999.90;999.90;;;22.00;1.00;;;;;;4887038;29;20387;-76
2023/04/21 09:42:55;;;;;;;1999.90;999.90;;;22.10;1.00;;;;;;4881102;29;20588;-76
2023/04/21 09:45:26;;;;;;;1999.90;999.90;;;22.00;1.00;;;;;;4895286;29;20153;-76
2023/04/21 09:47:56;;;;;;;1999.90;999.90;;;21.80;1.00;;;;;;4897741;29;20454;-76
2023/04/21 09:50:23;;;;;;;1999.90;999.90;;;21.40;1.00;;;;;;4896862;29;20085;-76
2023/04/21 09:52:53;;;;;;;1999.90;999.90;;;20.90;1.00;;;;;;4895658;29;20063;-79
2023/04/21 09:55:25;;;;;;;1999.90;999.90;;;20.40;1.00;;;;;;4897903;29;20052;-77
2023/04/21 09:57:56;;;;;;;1999.90;999.90;;;20.50;1.00;;;;;;4897701;29;20044;-76
2023/04/21 10:00:27;;;;;;;1999.90;999.90;;;20.70;1.00;;;;;;4892647;29;20040;-75
2023/04/21 10:02:54;;;;;;;1999.90;999.90;;;20.70;1.00;;;;;;4880774;29;20503;-75
2023/04/21 10:05:20;;;;;;;1999.90;999.90;;;20.50;1.00;;;;;;4877017;29;20513;-75
2023/04/21 10:07:47;;;;;;;1999.90;999.90;;;20.30;1.00;;;;;;4877905;29;20493;-75
2023/04/21 10:10:23;;;;;;;1999.90;999.90;;;20.10;1.00;;;;;;4892554;29;20124;-76
2023/04/21 10:12:50;;;;;;;1999.90;999.90;;;20.10;1.00;;;;;;4878382;29;20206;-75
2023/04/21 10:15:37;;;;;;;1999.90;999.90;;;20.00;1.00;;;;;;4891556;29;20109;-75
2023/04/21 10:18:23;;;;;;;1999.90;999.90;;;20.20;1.00;;;;;;4878376;29;20080;-75
2023/04/21 10:21:00;;;;;;;1999.90;999.90;;;19.90;1.00;;;;;;4862374;29;20128;-76
2023/04/21 10:23:37;;;;;;;1999.90;999.90;;;20.20;1.00;;;;;;4878724;29;20481;-75
2023/04/21 10:26:03;;;;;;;1999.90;999.90;;;20.60;1.00;;;;;;4878269;29;20501;-76
2023/04/21 10:28:51;;;;;;;1999.90;999.90;;;21.20;1.00;;;;;;4893996;29;20053;-75
2023/04/21 10:31:33;;;;;;;1999.90;999.90;;;21.80;1.00;;;;;;4877830;29;20045;-76
2023/04/21 10:34:05;;;;;;;1999.90;999.90;;;22.50;1.00;;;;;;4880230;29;20043;-76
2023/04/21 10:36:33;;;;;;;1999.90;999.90;;;23.10;1.00;;;;;;4895623;29;20056;-76
2023/04/21 10:39:03;;;;;;;1999.90;999.90;;;23.60;1.00;;;;;;4895901;29;20063;-76
2023/04/21 10:41:32;;;;;;;1999.90;999.90;;;23.30;1.00;;;;;;4880472;29;20053;-76
2023/04/21 10:43:59;;;;;;;1999.90;999.90;;;23.30;1.00;;;;;;4881006;29;20076;-76
2023/04/21 10:46:45;;;;;;;1999.90;999.90;;;23.20;1.00;;;;;;4893633;29;20052;-76
2023/04/21 10:49:26;;;;;;;1999.90;999.90;;;23.70;1.00;;;;;;4895104;29;20052;-75
2023/04/21 10:54:48;;;;;;;1999.90;999.90;;;25.20;1.00;;;;;;4896180;29;20080;-76
2023/04/21 10:57:18;;;;;;;1999.90;999.90;;;25.40;1.00;;;;;;4883189;29;20130;-76
2023/04/21 10:59:45;;;;;;;1999.90;999.90;;;24.80;1.00;;;;;;4878344;29;20083;-76
2023/04/21 11:02:13;;;;;;;1999.90;999.90;;;24.20;1.00;;;;;;4882584;29;20056;-76
2023/04/21 11:04:43;;;;;;;1999.90;999.90;;;24.10;1.00;;;;;;4891087;29;20055;-76
2023/04/21 11:07:09;;;;;;;1999.90;999.90;;;24.20;1.00;;;;;;4885865;29;20060;-78
2023/04/21 11:09:36;;;;;;;1999.90;999.90;;;25.10;1.00;;;;;;4888238;29;20052;-77
2023/04/21 11:12:07;;;;;;;1999.90;999.90;;;25.30;1.00;;;;;;4886089;29;20063;-76
2023/04/21 11:14:34;;;;;;;1999.90;999.90;;;25.30;1.00;;;;;;4887044;29;20113;-76
2023/04/21 11:17:01;;;;;;;1999.90;999.90;;;25.10;1.00;;;;;;4883548;29;20132;-79
2023/04/21 11:19:27;;;;;;;1999.90;999.90;;;24.30;1.00;;;;;;4885273;29;20068;-77
2023/04/21 11:21:53;;;;;;;1999.90;999.90;;;23.90;1.00;;;;;;4890797;29;20044;-76
2023/04/21 11:24:22;;;;;;;1999.90;999.90;;;23.10;1.00;;;;;;4884551;29;20045;-78
2023/04/21 11:26:48;;;;;;;1999.90;999.90;;;23.50;1.00;;;;;;4884768;29;20044;-76
2023/04/21 11:29:14;;;;;;;1999.90;999.90;;;23.60;1.00;;;;;;4857211;29;20064;-76
2023/04/21 11:31:45;;;;;;;1999.90;999.90;;;23.50;1.00;;;;;;4879709;29;20418;-77
2023/04/21 11:34:11;;;;;;;1999.90;999.90;;;23.00;1.00;;;;;;4883031;29;20151;-76
2023/04/21 11:36:39;;;;;;;1999.90;999.90;;;23.20;1.00;;;;;;4884526;29;20061;-76
2023/04/21 11:39:09;;;;;;;1999.90;999.90;;;23.60;1.00;;;;;;4887457;29;20144;-76
2023/04/21 11:41:46;;;;;;;1999.90;999.90;;;23.40;1.00;;;;;;4883483;29;20274;-77
2023/04/21 11:44:13;;;;;;;1999.90;999.90;;;24.00;1.00;;;;;;4900459;29;20261;-76
2023/04/21 11:46:45;;;;;;;1999.90;999.90;;;23.30;1.00;;;;;;4885299;29;20320;-76
2023/04/21 11:49:13;;;;;;;1999.90;999.90;;;22.00;1.00;;;;;;4884726;29;20052;-74
2023/04/21 11:51:40;;;;;;;1999.90;999.90;;;21.30;1.00;;;;;;4882428;29;20060;-78
2023/04/21 11:54:08;;;;;;;1999.90;999.90;;;21.60;1.00;;;;;;4873800;29;20049;-74
2023/04/21 11:56:42;;;;;;;1999.90;999.90;;;21.60;1.00;;;;;;4889067;29;20075;-77
2023/04/21 11:59:09;;;;;;;1999.90;999.90;;;21.50;1.00;;;;;;4882196;29;20048;-74
2023/04/21 12:01:43;;;;;;;1999.90;999.90;;;21.90;1.00;;;;;;4868854;29;20166;-77
2023/04/21 12:04:16;;;;;;;1999.90;999.90;;;22.60;1.00;;;;;;4885112;29;20043;-78
2023/04/21 12:06:43;;;;;;;1999.90;999.90;;;23.30;1.00;;;;;;4891509;29;20044;-76
2023/04/21 12:09:19;;;;;;;1999.90;999.90;;;23.90;1.00;;;;;;4885496;29;20144;-75
2023/04/21 12:11:52;;;;;;;1999.90;999.90;;;23.50;1.00;;;;;;4887891;29;20108;-75